Jack C. Davis Observatory, Carson City, Nevada Weather observations

Data are for observation ending at time listed.
 Day   Time    Ave.   Ave.  Ave.  Vector   Max.   Stn.    Total    Solar   Ave.  
  of    of     Air    Rel.  Wind   Wind    Wind   Baro.  Precip.   Rad.    Soil  
Year   Day     Temp.  Hum.  Speed  Dir.    Gust   Pres.                    Temp. 
2014   (PST)    F      %     mph   deg.    mph     mb.     in.     W/m2     F   
------------------------------------------------------------------------------
 244   21:40   69.2    25    5.3   324      8.0   846.0    0.00       0    999.0
 244   21:50   69.3    24    5.6   318      7.7   846.1    0.00       0    999.0
 244   22:00   69.3    24    4.4   319      7.9   846.1    0.00       0    999.0
 244   22:10   70.0    23    4.0   302      8.7   846.1    0.00       0    999.0
 244   22:20   70.2    23    4.3   308      6.9   846.1    0.00       0    999.0
 244   22:30   68.9    24    5.2   309      9.9   846.1    0.00       0    999.0
 244   22:40   68.5    25    5.3   315      8.2   846.1    0.00       0    999.0
 244   22:50   67.8    25    5.5   320     10.3   846.1    0.00       0    999.0
 244   23:00   67.7    26    4.0   332      7.7   846.1    0.00       0    999.0
 244   23:10   68.4    24    5.4   286      9.5   846.1    0.00       0    999.0
 244   23:20   67.9    25    4.7   304      8.6   846.1    0.00       0    999.0
 244   23:30   66.9    26    4.4   298      6.5   846.1    0.00       0    999.0
 244   23:40   66.9    25    4.2   292      5.5   846.0    0.00       0    999.0
 244   23:50   66.8    26    5.5   315      9.5   846.0    0.00       0    999.0
 245    0:00   68.0    26    6.9   323     10.4   846.0    0.00       0    999.0
 245    0:10   66.8    27    5.8   318      8.3   845.9    0.00       0    999.0
 245    0:20   65.6    28    3.9   318      6.3   845.9    0.00       0    999.0
 245    0:30   64.9    27    5.8   270      7.8   845.9    0.00       0    999.0
 245    0:40   63.8    29    3.8   298      6.6   845.9    0.00       0    999.0
 245    0:50   63.6    29    2.7   313      3.7   845.9    0.00       0    999.0
 245    1:00   64.0    29    3.4   300      4.6   845.8    0.00       0    999.0
 245    1:10   62.7    30    3.6   282      5.1   845.8    0.00       0    999.0
 245    1:20   61.6    31    5.1   268      6.0   845.8    0.00       0    999.0
 245    1:30   62.3    30    4.6   273      6.4   845.8    0.00       0    999.0
 245    1:40   61.6    32    4.0   276      5.6   845.8    0.00       0    999.0
 245    1:50   61.6    31    3.1   285      6.2   845.8    0.00       0    999.0
 245    2:00   61.5    32    2.4   310      3.1   845.9    0.00       0    999.0
 245    2:10   61.0    32    2.7   303      3.5   845.9    0.00       0    999.0
 245    2:20   60.2    34    3.9   276      4.9   845.9    0.00       0    999.0
 245    2:30   59.7    34    4.4   263      5.6   845.9    0.00       0    999.0
 245    2:40   60.6    33    3.5   267      5.5   845.9    0.00       0    999.0
 245    2:50   60.0    34    4.4   267      5.8   845.9    0.00       0    999.0
 245    3:00   58.6    36    4.5   273      6.4   845.9    0.00       0    999.0
 245    3:10   59.1    35    5.3   268      7.2   845.9    0.00       0    999.0
 245    3:20   60.2    33    4.5   271      6.5   845.8    0.00       0    999.0
 245    3:30   59.5    34    5.2   272      7.1   845.8    0.00       0    999.0
 245    3:40   58.7    36    4.3   274      6.2   845.8    0.00       0    999.0
 245    3:50   58.7    36    4.2   268      5.4   845.8    0.00       0    999.0
 245    4:00   59.2    35    4.2   268      6.8   845.8    0.00       0    999.0
 245    4:10   58.2    38    5.3   270      6.5   845.8    0.00       0    999.0
 245    4:20   57.8    38    3.8   280      5.6   845.9    0.00       0    999.0
 245    4:30   57.8    38    3.6   266      4.9   845.8    0.00       0    999.0
 245    4:40   57.0    40    4.3   256      5.9   845.8    0.00       0    999.0
 245    4:50   56.5    41    4.5   260      5.7   845.9    0.00       0    999.0
 245    5:00   55.4    43    3.9   281      5.4   845.9    0.00       0    999.0
 245    5:10   55.8    42    4.2   274      5.8   846.0    0.00       0    999.0
 245    5:20   55.2    43    5.0   271      6.0   845.9    0.00       0    999.0
 245    5:30   55.4    42    4.0   272      5.9   845.9    0.00       3    999.0
 245    5:40   55.9    41    3.2   269      4.5   846.0    0.00       8    999.0
 245    5:50   56.4    40    3.4   274      4.2   846.0    0.00      26    999.0
 245    6:00   57.7    38    2.8   299      3.5   846.0    0.00      53    999.0
 245    6:10   60.0    35    1.1   292      2.8   846.0    0.00      88    999.0
 245    6:20   62.9    32    0.4   286      1.3   846.1    0.00     121    999.0
 245    6:30   65.4    29    0.7   112      2.0   846.2    0.00     151    999.0
 245    6:40   66.7    29    0.1   115      1.1   846.2    0.00     182    999.0
 245    6:50   68.8    27    0.4    86      2.2   846.2    0.00     214    999.0
 245    7:00   67.7    28    1.1    57      2.5   846.2    0.00     247    999.0
 245    7:10   69.2    26    1.3   128      2.3   846.2    0.00     281    999.0
 245    7:20   69.9    26    1.4   121      2.3   846.2    0.00     315    999.0
 245    7:30   68.1    28    2.4    80      3.7   846.2    0.00     349    999.0
 245    7:40   67.0    29    2.6   102      4.3   846.2    0.00     382    999.0
 245    7:50   68.1    29    2.5    71      4.5   846.1    0.00     414    999.0
 245    8:00   67.5    30    3.5    85      6.0   846.1    0.00     446    999.0
 245    8:10   68.2    29    3.6    88      6.0   846.0    0.00     478    999.0
 245    8:20   69.7    27    3.1    77      5.7   846.0    0.00     510    999.0
 245    8:30   70.6    27    3.5    68      6.4   845.9    0.00     542    999.0
 245    8:40   71.5    26    2.5    79      4.9   845.9    0.00     571    999.0
 245    8:50   73.8    24    2.5    93      4.7   845.8    0.00     598    999.0
 245    9:00   74.4    24    3.2    88      5.8   845.7    0.00     624    999.0
 245    9:10   74.7    24    3.2   105      5.5   845.7    0.00     648    999.0
 245    9:20   76.1    23    3.1    71      5.5   845.6    0.00     673    999.0
 245    9:30   77.1    22    2.8    88      5.0   845.5    0.00     698    999.0
 245    9:40   78.7    21    3.0    69      5.4   845.4    0.00     719    999.0
 245    9:50   78.7    21    3.1   104      5.2   845.3    0.00     740    999.0
 245   10:00   80.8    20    2.9    84      7.1   845.3    0.00     761    999.0
 245   10:10   80.8    19    3.7   106      7.1   845.2    0.00     781    999.0
 245   10:20   81.2    20    4.0    92      7.7   845.1    0.00     798    999.0
 245   10:30   82.1    19    4.7   102      8.3   845.0    0.00     813    999.0
 245   10:40   83.5    18    3.0   115      6.2   845.0    0.00     826    999.0
 245   10:50   83.8    17    3.9   103      8.5   844.9    0.00     840    999.0
 245   11:00   84.7    16    3.1    80      6.5   844.8    0.00     849    999.0
 245   11:10   86.1    15    4.5   182     11.4   844.7    0.00     856    999.0
 245   11:20   87.5    14    6.6   200     11.7   844.7    0.00     868    999.0
 245   11:30   88.1    14    5.9   224     18.6   844.6    0.00     874    999.0
 245   11:40   87.9    14    5.9   245     11.7   844.5    0.00     875    999.0
 245   11:50   87.0    15    9.4   264     18.9   844.4    0.00     876    999.0
 245   12:00   86.7    15   11.8   276     19.1   844.3    0.00     875    999.0
 245   12:10   86.1    16   14.3   280     24.4   844.3    0.00     873    999.0
 245   12:20   86.0    16    9.6   280     19.3   844.3    0.00     870    999.0
 245   12:30   87.1    15    9.4   271     17.7   844.2    0.00     865    999.0
 245   12:40   86.8    15    6.8   249     16.2   844.1    0.00     860    999.0
 245   12:50   87.8    15    6.2   256     16.6   844.0    0.00     852    999.0
 245   13:00   87.4    15    6.6   211     15.6   844.0    0.00     843    999.0
 245   13:10   87.5    15    5.7   218     17.7   843.9    0.00     832    999.0
 245   13:20   87.2    15    9.6   244     20.2   843.8    0.00     824    999.0
 245   13:30   86.7    15   10.7   264     17.6   843.7    0.00     817    999.0
 245   13:40   86.8    15   13.1   260     22.6   843.5    0.00     803    999.0
 245   13:50   86.6    14   16.8   255     26.1   843.3    0.00     787    999.0
 245   14:00   86.5    14   17.1   262     26.4   843.0    0.00     769    999.0
 245   14:10   86.6    14   15.6   266     24.6   843.0    0.00     751    999.0
 245   14:20   86.6    13   18.3   261     25.7   842.8    0.00     729    999.0
 245   14:30   86.5    14   17.2   258     25.0   842.8    0.00     705    999.0
 245   14:40   86.7    14   14.6   255     26.0   842.8    0.00     682    999.0
 245   14:50   86.3    14   15.4   259     26.5   842.7    0.00     657    999.0
 245   15:00   86.0    14   16.0   268     24.9   842.6    0.00     633    999.0
 245   15:10   85.8    14   18.2   262     29.1   842.4    0.00     607    999.0
 245   15:20   85.6    14   16.9   258     25.4   842.4    0.00     580    999.0
 245   15:30   85.6    14   14.2   257     26.9   842.4    0.00     551    999.0
 245   15:40   85.2    14   14.1   261     25.0   842.4    0.00     521    999.0
 245   15:50   85.2    14   14.2   253     21.7   842.4    0.00     488    999.0
 245   16:00   84.7    15   11.4   256     23.8   842.5    0.00     458    999.0
 245   16:10   84.8    15   12.4   248     22.6   842.5    0.00     424    999.0
 245   16:20   85.0    15    5.1   245     16.1   842.5    0.00     391    999.0
 245   16:30   85.5    15    6.6   218     18.5   842.5    0.00     361    999.0
 245   16:40   84.0    16   10.6   245     19.4   842.4    0.00     328    999.0
 245   16:50   83.3    17   12.6   248     22.3   842.4    0.00     289    999.0
 245   17:00   82.6    18    8.6   267     17.4   842.5    0.00     253    999.0
 245   17:10   82.5    17    8.6   256     20.4   842.5    0.00     217    999.0
 245   17:20   81.6    18    9.1   261     21.1   842.5    0.00     180    999.0
 245   17:30   81.1    19    7.0   251     22.6   842.5    0.00      80    999.0
 245   17:40   79.2    20    8.8   234     18.5   842.5    0.00      15    999.0
 245   17:50   78.5    21    4.9   201     16.6   842.5    0.00      13    999.0
 245   18:00   77.8    22    5.1    44     19.2   842.4    0.00      11    999.0
 245   18:10   78.2    20   11.2   275     23.7   842.4    0.00       9    999.0
 245   18:20   78.0    21    7.9   304     17.7   842.6    0.00       7    999.0
 245   18:30   77.6    21    4.8   292     11.9   842.5    0.00       5    999.0
 245   18:40   77.4    21    9.3   293     27.0   842.5    0.00       2    999.0
 245   18:50   77.3    21    7.1   304     17.9   842.7    0.00       0    999.0
 245   19:00   77.4    20    7.9    13     16.7   842.7    0.00       0    999.0
 245   19:10   76.9    20    7.3   288     27.3   842.8    0.00       0    999.0
 245   19:20   76.4    21    6.3   351     14.9   842.9    0.00       0    999.0
 245   19:30   76.2    22    7.1   329     18.2   843.0    0.00       0    999.0
 245   19:40   75.6    22    6.1   217     15.7   843.3    0.00       0    999.0
 245   19:50   75.2    22    3.5   205     10.6   843.4    0.00       0    999.0
 245   20:00   74.6    24    4.3   217      8.7   843.5    0.00       0    999.0
 245   20:10   74.3    25    5.0   184     10.1   843.6    0.00       0    999.0
 245   20:20   74.6    24    5.4   211     12.8   843.6    0.00       0    999.0
 245   20:30   74.6    24    2.6   173      8.9   843.7    0.00       0    999.0
 245   20:40   74.3    25    4.5   242     12.0   843.7    0.00       0    999.0
 245   20:50   74.5    25    4.5   244      8.8   843.7    0.00       0    999.0
 245   21:00   73.3    26    5.5   289      9.8   843.5    0.00       0    999.0
 245   21:10   73.1    26    6.3   277     14.7   843.5    0.00       0    999.0
 245   21:20   73.4    26    8.3   279     13.8   843.5    0.00       0    999.0
 245   21:30   72.3    27    6.9   273     10.5   843.6    0.00       0    999.0

Return to Yerington, Nevada graphs page.


Western Regional Climate Center,wrcc@dri.edu